Time;durP1;ratioP1;P1;durP2;ratioP2;P2;SDS_P1;SDS_P2;PMS_P1;PMS_P2;Temp;Humidity;BMP_temperature;BMP_pressure;BME280_temperature;BME280_humidity;BME280_pressure;Samples;Min_cycle;Max_cycle;Signal;HPM_P1;HPM_P2
2023/05/12 00:00:18;;;;;;;;;;;;;;;14.35;100.00;99240.44;5062824;28;19963;-91
2023/05/12 00:02:49;;;;;;;;;;;;;;;14.20;100.00;99242.97;5073527;28;19924;-91
2023/05/12 00:05:14;;;;;;;;;;;;;;;14.13;100.00;99242.03;5065905;28;19917;-90
2023/05/12 00:07:40;;;;;;;;;;;;;;;14.17;100.00;99237.19;5062805;28;19916;-90
2023/05/12 00:10:06;;;;;;;;;;;;;;;14.11;100.00;99238.72;5056172;28;19917;-89
2023/05/12 00:12:32;;;;;;;;;;;;;;;14.04;100.00;99243.06;5055475;28;19924;-88
2023/05/12 00:14:57;;;;;;;;;;;;;;;14.00;100.00;99236.44;5059410;28;19921;-90
2023/05/12 00:17:23;;;;;;;;;;;;;;;14.05;100.00;99239.41;5065776;28;19978;-90
2023/05/12 00:19:49;;;;;;;;;;;;;;;14.04;100.00;99234.25;5072725;28;19917;-89
2023/05/12 00:22:15;;;;;;;;;;;;;;;14.05;100.00;99244.72;5070436;28;19916;-89
2023/05/12 00:24:41;;;;;;;;;;;;;;;14.10;100.00;99244.19;5073589;28;19944;-89
2023/05/12 00:27:06;;;;;;;;;;;;;;;14.11;100.00;99232.59;5073191;28;19943;-89
2023/05/12 00:29:32;;;;;;;;;;;;;;;14.02;100.00;99234.44;5062963;28;19925;-90
2023/05/12 00:31:57;;;;;;;;;;;;;;;14.04;100.00;99227.13;5077783;28;19920;-89
2023/05/12 00:34:23;;;;;;;;;;;;;;;13.93;100.00;99235.47;5077454;28;19928;-89
2023/05/12 00:36:48;;;;;;;;;;;;;;;13.96;100.00;99229.00;5078726;28;20046;-88
2023/05/12 00:39:14;;;;;;;;;;;;;;;13.90;100.00;99225.22;5075585;28;19920;-88
2023/05/12 00:41:39;;;;;;;;;;;;;;;13.96;100.00;99224.50;5075425;28;19927;-88
2023/05/12 00:44:04;;;;;;;;;;;;;;;13.87;100.00;99222.91;5068943;28;20018;-86
2023/05/12 00:46:30;;;;;;;;;;;;;;;13.88;100.00;99212.13;5056214;28;19917;-87
2023/05/12 00:48:56;;;;;;;;;;;;;;;13.89;100.00;99212.97;5059101;28;19916;-89
2023/05/12 00:51:22;;;;;;;;;;;;;;;13.89;100.00;99215.59;5060280;28;19916;-89
2023/05/12 00:53:49;;;;;;;;;;;;;;;13.97;100.00;99215.56;5059479;28;19975;-87
2023/05/12 00:56:16;;;;;;;;;;;;;;;14.04;100.00;99210.38;5059599;28;20434;-88
2023/05/12 00:58:42;;;;;;;;;;;;;;;14.02;100.00;99212.41;5053544;28;20291;-88
2023/05/12 01:01:07;;;;;;;;;;;;;;;14.11;100.00;99209.53;5059876;28;19988;-88
2023/05/12 01:03:32;;;;;;;;;;;;;;;14.16;100.00;99209.84;5060032;28;19943;-88
2023/05/12 01:06:19;;;;;;;;;;;;;;;14.16;100.00;99209.84;5061402;28;20351;-87
2023/05/12 01:08:46;;;;;;;;;;;;;;;14.14;100.00;99209.16;5063883;28;19992;-89
2023/05/12 01:11:13;;;;;;;;;;;;;;;14.14;100.00;99211.81;5072143;28;19913;-87
2023/05/12 01:13:40;;;;;;;;;;;;;;;14.14;100.00;99206.50;5071344;28;19916;-88
2023/05/12 01:16:08;;;;;;;;;;;;;;;14.14;100.00;99206.50;5081472;22;20423;-80
2023/05/12 01:18:34;;;;;;;;;;;;;;;14.16;100.00;99207.19;5031279;28;20087;-79
2023/05/12 01:20:59;;;;;;;;;;;;;;;14.15;100.00;99197.56;5040161;28;19948;-80
2023/05/12 01:23:30;;;;;;;;;;;;;;;14.20;100.00;99199.69;5027858;28;19921;-79
2023/05/12 01:26:06;;;;;;;;;;;;;;;14.22;100.00;99198.53;5056786;28;19971;-79
2023/05/12 01:28:33;;;;;;;;;;;;;;;14.25;100.00;99192.88;5031689;28;19917;-79
2023/05/12 01:31:00;;;;;;;;;;;;;;;14.26;100.00;99199.00;5032797;28;19917;-79
2023/05/12 01:33:25;;;;;;;;;;;;;;;14.26;100.00;99194.50;5023486;28;20280;-79
2023/05/12 01:35:50;;;;;;;;;;;;;;;14.16;100.00;99193.91;5020553;28;19917;-76
2023/05/12 01:38:17;;;;;;;;;;;;;;;14.20;100.00;99195.22;5029081;28;19917;-79
2023/05/12 01:40:42;;;;;;;;;;;;;;;14.22;100.00;99193.22;5031072;28;20012;-78
2023/05/12 01:43:08;;;;;;;;;;;;;;;14.23;100.00;99200.19;5036816;28;20014;-78
2023/05/12 01:45:34;;;;;;;;;;;;;;;14.22;100.00;99193.22;5030932;28;19995;-77
2023/05/12 01:47:59;;;;;;;;;;;;;;;14.09;100.00;99198.25;5039080;28;19917;-78
2023/05/12 01:50:24;;;;;;;;;;;;;;;14.18;100.00;99191.09;5035773;28;19922;-78
2023/05/12 01:52:50;;;;;;;;;;;;;;;14.19;100.00;99198.06;5024847;28;20293;-78
2023/05/12 01:55:17;;;;;;;;;;;;;;;14.21;100.00;99191.56;5021909;28;19921;-78
2023/05/12 01:57:48;;;;;;;;;;;;;;;14.08;100.00;99191.28;5025289;28;19917;-78
2023/05/12 02:00:14;;;;;;;;;;;;;;;14.04;100.00;99194.47;5038722;28;19921;-78
2023/05/12 02:02:40;;;;;;;;;;;;;;;14.08;100.00;99191.28;5031640;28;19916;-78
2023/05/12 02:05:06;;;;;;;;;;;;;;;14.09;100.00;99192.94;5030705;28;19917;-78
2023/05/12 02:07:31;;;;;;;;;;;;;;;14.01;100.00;99193.00;5054840;28;19972;-78
2023/05/12 02:09:57;;;;;;;;;;;;;;;14.01;100.00;99200.97;5022563;28;20315;-78
2023/05/12 02:12:24;;;;;;;;;;;;;;;13.97;100.00;99194.34;5019016;28;19943;-78
2023/05/12 02:14:49;;;;;;;;;;;;;;;13.98;100.00;99189.84;5021070;28;19925;-78
2023/05/12 02:17:16;;;;;;;;;;;;;;;13.85;100.00;99191.22;5019542;28;19917;-78
2023/05/12 02:19:41;;;;;;;;;;;;;;;13.75;100.00;99184.50;5020153;28;19917;-80
2023/05/12 02:22:08;;;;;;;;;;;;;;;13.81;100.00;99183.81;5021284;28;19920;-78
2023/05/12 02:24:34;;;;;;;;;;;;;;;13.72;100.00;99180.38;5020677;28;19925;-79
2023/05/12 02:27:00;;;;;;;;;;;;;;;13.71;100.00;99188.50;5058695;28;19920;-80
2023/05/12 02:29:25;;;;;;;;;;;;;;;13.72;100.00;99190.97;5045730;28;19921;-81
2023/05/12 02:31:50;;;;;;;;;;;;;;;13.72;100.00;99193.63;5046438;28;19921;-80
2023/05/12 02:34:16;;;;;;;;;;;;;;;13.66;100.00;99196.13;5030081;28;19940;-80
2023/05/12 02:36:42;;;;;;;;;;;;;;;13.62;100.00;99189.50;5046359;28;19917;-79
2023/05/12 02:39:07;;;;;;;;;;;;;;;13.62;100.00;99189.50;5038641;28;20007;-79
2023/05/12 02:41:32;;;;;;;;;;;;;;;13.62;100.00;99194.81;5038159;28;19917;-80
2023/05/12 02:43:58;;;;;;;;;;;;;;;13.60;100.00;99192.34;5038273;28;19917;-79
2023/05/12 02:46:23;;;;;;;;;;;;;;;13.58;100.00;99193.50;5030549;28;19921;-79
2023/05/12 02:48:49;;;;;;;;;;;;;;;13.57;100.00;99197.16;5054631;28;19983;-79
2023/05/12 02:51:14;;;;;;;;;;;;;;;13.55;100.00;99199.97;5019887;28;20289;-80
2023/05/12 02:53:40;;;;;;;;;;;;;;;13.44;100.00;99203.81;5019371;28;20539;-80
2023/05/12 02:56:05;;;;;;;;;;;;;;;13.42;100.00;99200.50;5022457;28;20404;-79
2023/05/12 02:58:30;;;;;;;;;;;;;;;13.40;100.00;99197.19;5030682;28;20331;-79
2023/05/12 03:00:56;;;;;;;;;;;;;;;13.41;100.00;99198.03;5021590;28;20384;-81
2023/05/12 03:03:22;;;;;;;;;;;;;;;13.33;100.00;99195.38;5030950;28;19923;-81
2023/05/12 03:05:48;;;;;;;;;;;;;;;13.33;100.00;99200.69;5030814;28;20018;-81
2023/05/12 03:08:14;;;;;;;;;;;;;;;13.26;100.00;99200.53;5031157;28;19924;-81
2023/05/12 03:10:39;;;;;;;;;;;;;;;13.30;100.00;99201.88;5054638;28;19925;-81
2023/05/12 03:13:05;;;;;;;;;;;;;;;13.32;100.00;99199.84;5022559;28;19921;-82
2023/05/12 03:15:30;;;;;;;;;;;;;;;13.30;100.00;99207.16;5017670;28;19929;-81
2023/05/12 03:17:55;;;;;;;;;;;;;;;13.30;100.00;99204.50;5020805;28;20242;-78
2023/05/12 03:20:21;;;;;;;;;;;;;;;13.30;100.00;99212.47;5018176;28;19917;-78
2023/05/12 03:22:46;;;;;;;;;;;;;;;13.34;100.00;99207.66;5019689;28;19946;-78
2023/05/12 03:25:12;;;;;;;;;;;;;;;13.33;100.00;99205.97;5021284;28;19964;-78
2023/05/12 03:27:37;;;;;;;;;;;;;;;13.31;100.00;99214.09;5028042;28;19924;-77
2023/05/12 03:30:04;;;;;;;;;;;;;;;13.30;100.00;99204.50;5030161;28;19924;-78
2023/05/12 03:32:32;;;;;;;;;;;;;;;13.27;100.00;99207.47;5046131;28;19917;-78
2023/05/12 03:34:57;;;;;;;;;;;;;;;13.30;100.00;99201.88;5032032;28;20369;-77
2023/05/12 03:37:23;;;;;;;;;;;;;;;13.35;100.00;99202.19;5055786;28;19959;-78
2023/05/12 03:39:48;;;;;;;;;;;;;;;13.38;100.00;99204.47;5019674;28;19924;-78
2023/05/12 03:42:14;;;;;;;;;;;;;;;13.29;100.00;99197.56;5020077;28;20247;-78
2023/05/12 03:44:40;;;;;;;;;;;;;;;13.31;100.00;99205.34;5020824;28;19940;-78
2023/05/12 03:47:05;;;;;;;;;;;;;;;13.26;100.00;99211.13;5017397;28;19925;-78
2023/05/12 03:49:31;;;;;;;;;;;;;;;13.23;100.00;99200.88;5018598;28;19925;-78
2023/05/12 03:51:56;;;;;;;;;;;;;;;13.27;100.00;99202.19;5018977;28;19995;-80
2023/05/12 03:54:22;;;;;;;;;;;;;;;13.10;100.00;99200.53;5020440;28;19967;-80
2023/05/12 03:56:47;;;;;;;;;;;;;;;12.85;100.00;99194.41;5022520;28;20374;-80
2023/05/12 03:59:13;;;;;;;;;;;;;;;12.78;100.00;99200.56;5032163;28;19917;-80
2023/05/12 04:01:39;;;;;;;;;;;;;;;12.83;100.00;99188.47;5029974;28;20002;-79
2023/05/12 04:04:04;;;;;;;;;;;;;;;12.86;100.00;99192.59;5036811;28;19925;-79
2023/05/12 04:06:30;;;;;;;;;;;;;;;12.78;100.00;99195.25;5029065;28;20012;-80
2023/05/12 04:08:56;;;;;;;;;;;;;;;12.71;100.00;99190.63;5024958;28;20393;-80
2023/05/12 04:11:22;;;;;;;;;;;;;;;12.48;100.00;99200.19;5029190;28;19917;-80
2023/05/12 04:13:47;;;;;;;;;;;;;;;12.26;100.00;99190.22;5045472;28;19925;-79
2023/05/12 04:16:13;;;;;;;;;;;;;;;12.19;100.00;99183.94;5028840;28;19917;-77
2023/05/12 04:18:38;;;;;;;;;;;;;;;12.17;100.00;99191.19;5029261;28;19917;-78
2023/05/12 04:21:06;;;;;;;;;;;;;;;12.06;100.00;99189.69;5028563;28;19917;-77
2023/05/12 04:23:31;;;;;;;;;;;;;;;11.95;100.00;99192.63;5028615;28;20395;-80
2023/05/12 04:26:04;;;;;;;;;;;;;;;12.09;100.00;99188.53;5036988;28;20280;-80
2023/05/12 04:28:29;;;;;;;;;;;;;;;12.16;100.00;99189.53;5041921;28;19917;-80
2023/05/12 04:30:55;;;;;;;;;;;;;;;12.22;100.00;99194.19;5042301;28;20012;-80
2023/05/12 04:33:21;;;;;;;;;;;;;;;12.12;100.00;99201.44;5044767;28;20329;-79
2023/05/12 04:35:47;;;;;;;;;;;;;;;12.17;100.00;99201.78;5029543;28;20019;-79
2023/05/12 04:38:12;;;;;;;;;;;;;;;12.14;100.00;99207.38;5020343;28;20012;-80
2023/05/12 04:40:38;;;;;;;;;;;;;;;12.11;100.00;99202.41;5028230;28;19974;-79
2023/05/12 04:43:04;;;;;;;;;;;;;;;12.27;100.00;99202.47;5028483;28;19917;-78
2023/05/12 04:45:30;;;;;;;;;;;;;;;12.43;100.00;99206.97;5028164;28;19923;-80
2023/05/12 04:47:56;;;;;;;;;;;;;;;12.50;100.00;99203.50;5028610;28;19917;-79
2023/05/12 04:50:21;;;;;;;;;;;;;;;12.66;100.00;99219.38;5029492;28;19917;-81
2023/05/12 04:52:46;;;;;;;;;;;;;;;12.65;100.00;99212.47;5031182;28;20599;-80
2023/05/12 04:55:12;;;;;;;;;;;;;;;12.69;100.00;99221.72;5033155;28;19923;-81
2023/05/12 04:57:40;;;;;;;;;;;;;;;12.81;100.00;99231.97;5038429;28;19971;-81
2023/05/12 05:00:06;;;;;;;;;;;;;;;12.89;100.00;99229.34;5048637;28;19921;-80
2023/05/12 05:02:31;;;;;;;;;;;;;;;12.99;100.00;99237.94;5027836;28;20296;-81
2023/05/12 05:04:57;;;;;;;;;;;;;;;13.03;100.00;99239.25;5048469;28;19936;-80
2023/05/12 05:07:23;;;;;;;;;;;;;;;13.08;100.00;99242.25;5032607;28;19917;-79
2023/05/12 05:09:49;;;;;;;;;;;;;;;13.09;100.00;99241.25;5031063;28;20035;-80
2023/05/12 05:12:14;;;;;;;;;;;;;;;13.16;100.00;99236.97;5061126;28;20324;-79
2023/05/12 05:14:40;;;;;;;;;;;;;;;13.27;100.00;99238.44;5047999;28;19960;-81
2023/05/12 05:17:10;;;;;;;;;;;;;;;13.36;100.00;99238.28;5030909;28;20349;-80
2023/05/12 05:19:35;;;;;;;;;;;;;;;13.38;100.00;99236.28;5031348;28;19927;-79
2023/05/12 05:22:01;;;;;;;;;;;;;;;13.40;100.00;99233.47;5031191;28;19917;-80
2023/05/12 05:24:27;;;;;;;;;;;;;;;13.39;100.00;99239.75;5027389;28;19921;-81
2023/05/12 05:26:53;;;;;;;;;;;;;;;13.42;100.00;99237.63;5063225;28;19917;-79
2023/05/12 05:29:18;;;;;;;;;;;;;;;13.35;100.00;99246.41;5031929;28;19924;-78
2023/05/12 05:31:44;;;;;;;;;;;;;;;13.39;100.00;99237.94;5032439;28;20348;-78
2023/05/12 05:34:09;;;;;;;;;;;;;;;13.41;100.00;99246.56;5048158;28;19964;-79
2023/05/12 05:36:35;;;;;;;;;;;;;;;13.50;100.00;99234.09;5060982;28;19921;-80
2023/05/12 05:39:00;;;;;;;;;;;;;;;13.50;100.00;99242.88;5031314;28;20285;-79
2023/05/12 05:41:26;;;;;;;;;;;;;;;13.54;100.00;99240.75;5027586;28;19939;-80
2023/05/12 05:43:51;;;;;;;;;;;;;;;13.61;100.00;99246.19;5043895;28;19952;-80
2023/05/12 05:46:17;;;;;;;;;;;;;;;13.47;100.00;99245.06;5030270;28;19967;-78
2023/05/12 05:48:42;;;;;;;;;;;;;;;13.57;100.00;99240.38;5023499;28;19961;-79
2023/05/12 05:51:10;;;;;;;;;;;;;;;13.63;100.00;99250.31;5046024;28;20366;-79
2023/05/12 05:53:36;;;;;;;;;;;;;;;13.74;100.00;99257.06;5029913;28;20005;-79
2023/05/12 05:56:02;;;;;;;;;;;;;;;13.85;100.00;99246.09;5060024;28;20004;-78
2023/05/12 05:58:29;;;;;;;;;;;;;;;13.78;100.00;99258.41;5027203;28;19924;-78
2023/05/12 06:00:54;;;;;;;;;;;;;;;13.72;100.00;99249.31;5030674;28;19920;-78
2023/05/12 06:03:19;;;;;;;;;;;;;;;13.62;100.00;99255.78;5026981;28;19932;-75
2023/05/12 06:05:45;;;;;;;;;;;;;;;13.56;100.00;99259.09;5042678;28;19987;-78
2023/05/12 06:08:12;;;;;;;;;;;;;;;13.65;100.00;99258.09;5029967;28;20369;-78
2023/05/12 06:10:38;;;;;;;;;;;;;;;13.74;100.00;99259.72;5027334;28;19979;-78
2023/05/12 06:13:03;;;;;;;;;;;;;;;13.84;100.00;99257.72;5031179;28;19917;-77
2023/05/12 06:15:28;;;;;;;;;;;;;;;13.84;100.00;99263.84;5024681;28;20368;-78
2023/05/12 06:17:54;;;;;;;;;;;;;;;13.87;100.00;99258.22;5028665;28;19921;-78
2023/05/12 06:20:19;;;;;;;;;;;;;;;13.91;100.00;99258.69;5030648;28;19998;-78
2023/05/12 06:22:45;;;;;;;;;;;;;;;13.95;100.00;99265.31;5026441;28;19925;-77
2023/05/12 06:25:10;;;;;;;;;;;;;;;13.74;100.00;99267.69;5043187;28;19947;-78
2023/05/12 06:27:36;;;;;;;;;;;;;;;13.68;100.00;99266.53;5034632;28;19924;-78
2023/05/12 06:30:03;;;;;;;;;;;;;;;13.83;100.00;99269.34;5029674;28;19917;-79
2023/05/12 06:32:28;;;;;;;;;;;;;;;13.86;100.00;99266.31;5027415;28;19917;-78
2023/05/12 06:34:54;;;;;;;;;;;;;;;13.76;100.00;99273.66;5027044;28;19944;-78
2023/05/12 06:37:19;;;;;;;;;;;;;;;13.84;100.00;99278.94;5058256;28;19924;-78
2023/05/12 06:39:44;;;;;;;;;;;;;;;13.83;100.00;99279.94;5046006;28;19932;-77
2023/05/12 06:42:10;;;;;;;;;;;;;;;13.80;100.00;99277.63;5029430;28;19923;-79
2023/05/12 06:44:39;;;;;;;;;;;;;;;13.69;100.00;99280.63;5030359;28;19917;-79
2023/05/12 06:47:05;;;;;;;;;;;;;;;13.65;100.00;99276.66;5029530;28;19931;-78
2023/05/12 06:49:34;;;;;;;;;;;;;;;13.60;100.00;99281.66;5029439;28;19935;-79
2023/05/12 06:51:59;;;;;;;;;;;;;;;13.57;100.00;99276.69;5027245;28;19964;-78
2023/05/12 06:54:25;;;;;;;;;;;;;;;13.68;100.00;99263.06;5030177;28;19968;-77
2023/05/12 06:56:50;;;;;;;;;;;;;;;13.80;100.00;99272.31;5028724;28;20038;-77
2023/05/12 06:59:16;;;;;;;;;;;;;;;13.90;100.00;99257.06;5029964;28;19939;-78
2023/05/12 07:01:41;;;;;;;;;;;;;;;13.90;100.00;99259.72;5030510;28;19956;-77
2023/05/12 07:04:07;;;;;;;;;;;;;;;13.89;100.00;99258.03;5030889;28;20043;-78
2023/05/12 07:06:33;;;;;;;;;;;;;;;13.94;100.00;99264.50;5027299;28;19917;-77
2023/05/12 07:08:58;;;;;;;;;;;;;;;13.92;100.00;99271.78;5028454;28;19917;-77
2023/05/12 07:11:24;;;;;;;;;;;;;;;13.87;100.00;99274.13;5041472;28;19917;-78
2023/05/12 07:13:49;;;;;;;;;;;;;;;13.78;100.00;99279.63;5028106;28;19916;-77
2023/05/12 07:16:15;;;;;;;;;;;;;;;13.89;100.00;99290.72;5026358;28;20384;-78
2023/05/12 07:18:41;;;;;;;;;;;;;;;13.98;100.00;99290.66;5030723;28;19917;-79
2023/05/12 07:21:06;;;;;;;;;;;;;;;14.04;100.00;99290.81;5029376;28;19967;-80
2023/05/12 07:23:33;;;;;;;;;;;;;;;13.92;100.00;99286.88;5036686;28;19917;-81
2023/05/12 07:25:59;;;;;;;;;;;;;;;13.95;100.00;99286.53;5030969;28;20011;-80
2023/05/12 07:28:24;;;;;;;;;;;;;;;14.05;100.00;99287.16;5034012;28;19948;-79
2023/05/12 07:30:49;;;;;;;;;;;;;;;14.00;100.00;99291.31;5030325;28;19963;-78
2023/05/12 07:33:15;;;;;;;;;;;;;;;14.04;100.00;99290.81;5031262;28;19963;-79
2023/05/12 07:35:40;;;;;;;;;;;;;;;14.02;100.00;99292.78;5028765;28;19971;-78
2023/05/12 07:38:08;;;;;;;;;;;;;;;13.94;100.00;99287.53;5023701;28;20003;-77
2023/05/12 07:40:33;;;;;;;;;;;;;;;13.98;100.00;99295.97;5025432;28;19924;-77
2023/05/12 07:42:59;;;;;;;;;;;;;;;14.02;100.00;99292.78;5028656;28;19917;-80
2023/05/12 07:45:24;;;;;;;;;;;;;;;13.92;100.00;99287.69;5041456;28;20019;-79
2023/05/12 07:47:50;;;;;;;;;;;;;;;13.91;100.00;99291.34;5026285;28;20609;-79
2023/05/12 07:50:16;;;;;;;;;;;;;;;14.01;100.00;99293.81;5026735;28;19917;-78
2023/05/12 07:52:48;;;;;;;;;;;;;;;14.06;100.00;99293.28;5030940;28;19921;-78
2023/05/12 07:55:14;;;;;;;;;;;;;;;14.01;100.00;99296.47;5025720;28;19918;-78
2023/05/12 07:57:39;;;;;;;;;;;;;;;13.88;100.00;99285.56;5032063;28;20070;-78
2023/05/12 08:00:08;;;;;;;;;;;;;;;13.86;100.00;99287.53;5033265;28;19932;-78
2023/05/12 08:02:38;;;;;;;;;;;;;;;13.97;100.00;99289.84;5026597;28;19924;-79
2023/05/12 08:05:04;;;;;;;;;;;;;;;13.94;100.00;99284.88;5024905;28;19917;-79
2023/05/12 08:07:29;;;;;;;;;;;;;;;14.12;100.00;99288.13;5030418;28;19924;-79
2023/05/12 08:09:54;;;;;;;;;;;;;;;14.27;100.00;99281.09;5029359;28;20011;-79
2023/05/12 08:12:20;;;;;;;;;;;;;;;14.19;100.00;99290.94;5030108;28;19917;-79
2023/05/12 08:14:45;;;;;;;;;;;;;;;14.33;100.00;99284.88;5029216;28;19921;-78
2023/05/12 08:17:10;;;;;;;;;;;;;;;14.48;100.00;99282.38;5029612;28;20304;-79
2023/05/12 08:19:36;;;;;;;;;;;;;;;14.56;100.00;99285.78;5029633;28;19921;-78
2023/05/12 08:22:01;;;;;;;;;;;;;;;14.71;100.00;99289.38;5030911;28;20364;-77
2023/05/12 08:24:27;;;;;;;;;;;;;;;14.84;100.00;99288.78;5054538;28;19948;-77
2023/05/12 08:26:52;;;;;;;;;;;;;;;14.92;100.00;99291.38;5033268;28;19928;-79
2023/05/12 08:29:17;;;;;;;;;;;;;;;14.97;100.00;99288.19;5035147;28;19924;-78
2023/05/12 08:31:43;;;;;;;;;;;;;;;14.99;100.00;99292.31;5030582;28;19968;-78
2023/05/12 08:34:09;;;;;;;;;;;;;;;15.02;100.00;99297.28;5035091;28;19956;-79
2023/05/12 08:36:34;;;;;;;;;;;;;;;15.11;100.00;99300.72;5030461;28;20085;-77
2023/05/12 08:39:00;;;;;;;;;;;;;;;15.10;100.00;99305.19;5033549;28;19917;-77
2023/05/12 08:41:35;;;;;;;;;;;;;;;15.07;100.00;99292.28;5033380;28;19963;-77
2023/05/12 08:44:01;;;;;;;;;;;;;;;15.06;100.00;99301.25;5052317;28;19917;-77
2023/05/12 08:46:27;;;;;;;;;;;;;;;15.09;100.00;99303.53;5024063;28;19928;-76
2023/05/12 08:48:52;;;;;;;;;;;;;;;15.06;100.00;99303.91;5036818;28;19917;-77
2023/05/12 08:51:18;;;;;;;;;;;;;;;15.02;100.00;99302.59;5034939;28;19940;-78
2023/05/12 08:53:46;;;;;;;;;;;;;;;15.01;100.00;99300.13;5032013;28;19944;-77
2023/05/12 08:56:12;;;;;;;;;;;;;;;15.01;100.00;99300.97;5033318;28;19925;-79
2023/05/12 08:58:38;;;;;;;;;;;;;;;14.93;100.00;99295.69;5035972;28;20012;-79
2023/05/12 09:01:05;;;;;;;;;;;;;;;14.80;100.00;99303.41;5032854;28;20016;-78
2023/05/12 09:03:33;;;;;;;;;;;;;;;14.68;100.00;99299.50;5029251;28;20373;-79
2023/05/12 09:05:59;;;;;;;;;;;;;;;14.56;100.00;99295.59;5032743;28;19924;-79
2023/05/12 09:08:27;;;;;;;;;;;;;;;14.51;100.00;99300.59;5032343;28;20424;-79
2023/05/12 09:10:55;;;;;;;;;;;;;;;14.34;100.00;99295.34;5032818;28;19939;-77
2023/05/12 09:13:39;;;;;;;;;;;;;;;14.45;100.00;99288.00;5032852;28;20296;-79
2023/05/12 09:16:06;;;;;;;;;;;;;;;14.56;100.00;99293.75;5028906;28;19925;-78
2023/05/12 09:18:51;;;;;;;;;;;;;;;14.66;100.00;99298.88;5031099;28;19971;-80
2023/05/12 09:21:16;;;;;;;;;;;;;;;14.63;100.00;99296.53;5032764;28;19917;-78
2023/05/12 09:23:57;;;;;;;;;;;;;;;14.63;100.00;99299.19;5032268;28;19940;-80
2023/05/12 09:26:23;;;;;;;;;;;;;;;14.72;100.00;99309.63;5039636;28;20365;-79
2023/05/12 09:28:49;;;;;;;;;;;;;;;14.78;100.00;99302.78;5037219;28;19923;-78
2023/05/12 09:31:15;;;;;;;;;;;;;;;14.80;100.00;99303.41;5035639;28;20285;-77
2023/05/12 09:33:40;;;;;;;;;;;;;;;14.77;100.00;99308.25;5030692;28;19917;-77
2023/05/12 09:36:06;;;;;;;;;;;;;;;14.70;100.00;99302.81;5030780;28;19982;-78
2023/05/12 09:38:31;;;;;;;;;;;;;;;14.64;100.00;99303.50;5030924;28;19916;-77
2023/05/12 09:40:56;;;;;;;;;;;;;;;14.56;100.00;99306.19;5032039;28;19947;-77
2023/05/12 09:43:22;;;;;;;;;;;;;;;14.57;100.00;99302.56;5032076;28;19917;-76
2023/05/12 09:45:49;;;;;;;;;;;;;;;14.51;100.00;99297.94;5033057;28;19967;-77
2023/05/12 09:48:15;;;;;;;;;;;;;;;14.54;100.00;99295.78;5036530;28;19940;-77
2023/05/12 09:50:47;;;;;;;;;;;;;;;14.47;100.00;99299.28;5034565;28;19916;-76
2023/05/12 09:53:14;;;;;;;;;;;;;;;14.51;100.00;99297.94;5032913;28;19917;-77
2023/05/12 09:55:43;;;;;;;;;;;;;;;14.53;100.00;99295.94;5059908;28;20008;-76
2023/05/12 09:58:09;;;;;;;;;;;;;;;14.51;100.00;99298.75;5035849;28;19917;-78
2023/05/12 10:00:37;;;;;;;;;;;;;;;14.47;100.00;99302.78;5031866;28;19932;-78
2023/05/12 10:03:08;;;;;;;;;;;;;;;14.50;100.00;99302.41;5031971;28;20051;-77
2023/05/12 10:05:33;;;;;;;;;;;;;;;14.51;100.00;99309.38;5031587;28;19924;-79
2023/05/12 10:07:59;;;;;;;;;;;;;;;14.41;100.00;99305.28;5044562;28;19925;-78
2023/05/12 10:10:25;;;;;;;;;;;;;;;14.29;100.00;99307.47;5031883;28;19987;-77
2023/05/12 10:12:50;;;;;;;;;;;;;;;14.32;100.00;99304.47;5031328;28;20340;-78
2023/05/12 10:15:16;;;;;;;;;;;;;;;14.34;100.00;99308.59;5030948;28;19917;-78
2023/05/12 10:17:43;;;;;;;;;;;;;;;14.40;100.00;99306.28;5030648;28;19956;-78
2023/05/12 10:20:08;;;;;;;;;;;;;;;14.40;100.00;99300.97;5031137;28;19917;-77
2023/05/12 10:22:35;;;;;;;;;;;;;;;14.45;100.00;99303.94;5031054;28;19978;-78
2023/05/12 10:25:03;;;;;;;;;;;;;;;14.40;100.00;99307.13;5031013;28;19939;-78
2023/05/12 10:27:31;;;;;;;;;;;;;;;14.49;100.00;99300.75;5030249;28;19916;-78
2023/05/12 10:29:56;;;;;;;;;;;;;;;14.56;100.00;99300.88;5028826;28;19971;-78
2023/05/12 10:32:22;;;;;;;;;;;;;;;14.63;100.00;99297.38;5031176;28;19921;-77
2023/05/12 10:34:47;;;;;;;;;;;;;;;14.69;100.00;99303.81;5030498;28;20031;-77
2023/05/12 10:37:13;;;;;;;;;;;;;;;14.69;100.00;99306.47;5029293;28;19952;-78
2023/05/12 10:39:46;;;;;;;;;;;;;;;14.75;100.00;99305.78;5030289;28;20250;-78
2023/05/12 10:42:15;;;;;;;;;;;;;;;14.74;100.00;99306.75;5030931;28;19978;-78
2023/05/12 10:44:48;;;;;;;;;;;;;;;14.81;100.00;99313.03;5030297;28;19917;-78
2023/05/12 10:47:14;;;;;;;;;;;;;;;14.75;100.00;99311.06;5029230;28;19924;-77
2023/05/12 10:49:40;;;;;;;;;;;;;;;14.77;100.00;99298.47;5025995;28;19917;-77
2023/05/12 10:52:06;;;;;;;;;;;;;;;14.82;100.00;99296.09;5026186;28;19921;-78
2023/05/12 10:54:44;;;;;;;;;;;;;;;14.88;100.00;99300.72;5027245;28;19917;-78
2023/05/12 10:57:13;;;;;;;;;;;;;;;14.86;100.00;99300.03;5034496;28;19993;-78
2023/05/12 10:59:56;;;;;;;3.28;3.08;;;;;;;14.98;100.00;99301.28;5023190;28;19924;-76
2023/05/12 11:02:24;;;;;;;4.80;4.50;;;;;;;15.09;100.00;99298.22;5022043;28;20394;-76
2023/05/12 11:04:50;;;;;;;5.03;4.63;;;;;;;15.21;100.00;99303.13;5024051;28;20506;-79
2023/05/12 11:07:20;;;;;;;5.13;4.73;;;;;;;15.29;100.00;99300.41;4333087;28;10001929;-79
2023/05/12 11:09:46;;;;;;;5.30;4.90;;;;;;;15.36;100.00;99304.84;5024743;28;20493;-79
2023/05/12 11:12:12;;;;;;;4.43;4.13;;;;;;;15.44;100.00;99298.59;5026525;28;20413;-79
2023/05/12 11:14:39;;;;;;;;;;;;;;;15.50;100.00;99306.69;5025845;28;20433;-78
2023/05/12 11:17:04;;;;;;;;;;;;;;;15.53;100.00;99310.84;5021956;28;19921;-77
2023/05/12 11:19:31;;;;;;;;;;;;;;;15.51;100.00;99318.16;5024969;28;20341;-79
2023/05/12 11:21:56;;;;;;;;;;;;;;;15.57;100.00;99317.47;5024830;28;19920;-78
2023/05/12 11:24:22;;;;;;;;;;;;;;;15.60;100.00;99319.78;5024559;28;19985;-78
2023/05/12 11:26:50;;;;;;;;;;;;;;;15.64;100.00;99318.41;5026553;28;19932;-77
2023/05/12 11:29:20;;;;;;;;;;;;;;;15.65;100.00;99312.06;5026088;28;20403;-77
2023/05/12 11:31:46;;;;;;;;;;;;;;;15.69;100.00;99309.88;5025813;28;19920;-79
2023/05/12 11:34:12;;;;;;;;;;;;;;;15.73;100.00;99311.97;5026476;28;19928;-78
2023/05/12 11:36:41;;;;;;;;;;;;;;;15.75;100.00;99307.31;5031015;28;19921;-78
2023/05/12 11:39:11;;;;;;;;;;;;;;;15.84;100.00;99314.22;5026288;28;19972;-78
2023/05/12 11:41:38;;;;;;;;;;;;;;;15.87;100.00;99311.19;5027898;28;19928;-77
2023/05/12 11:44:17;;;;;;;;;;;;;;;15.90;100.00;99310.81;5040303;28;20364;-76
2023/05/12 11:46:56;;;;;;;;;;;;;;;15.86;100.00;99306.84;5022227;28;20357;-79
2023/05/12 11:49:21;;;;;;;;;;;;;;;15.73;100.00;99301.34;5024765;28;19921;-77
2023/05/12 11:51:47;;;;;;;;;;;;;;;15.70;100.00;99304.38;5024239;28;19984;-77
2023/05/12 11:54:13;;;;;;;;;;;;;;;15.74;100.00;99305.66;5023798;28;19924;-77
2023/05/12 11:56:46;;;;;;;;;;;;;;;15.77;100.00;99302.66;4678328;28;10000490;-76
2023/05/12 11:59:11;;;;;;;;;;;;;;;15.83;100.00;99307.25;5027551;28;19974;-77
2023/05/12 12:01:43;;;;;;;;;;;;;;;15.95;100.00;99311.09;5041097;28;19940;-77
2023/05/12 12:04:09;;;;;;;;;;;;;;;16.13;100.00;99317.91;5028880;28;20282;-77
2023/05/12 12:06:42;;;;;;;;;;;;;;;16.30;100.00;99319.34;5037864;28;20016;-76
2023/05/12 12:09:07;;;;;;;;;;;;;;;16.41;100.00;99326.88;5033880;28;19937;-76
2023/05/12 12:11:33;;;;;;;;;;;;;;;16.42;100.00;99331.19;5032019;28;19924;-79
2023/05/12 12:13:59;;;;;;;;;;;;;;;16.49;100.00;99324.13;5028540;28;19964;-78
2023/05/12 12:16:25;;;;;;;;;;;;;;;16.56;100.00;99327.66;5025209;28;20280;-78
2023/05/12 12:18:51;;;;;;;;;;;;;;;16.34;100.00;99325.94;5029281;28;19921;-78
2023/05/12 12:21:20;;;;;;;;;;;;;;;16.27;100.00;99325.03;5034336;28;20023;-79
2023/05/12 12:23:45;;;;;;;;;;;;;;;16.36;100.00;99334.59;5030962;28;20655;-79
2023/05/12 12:26:11;;;;;;;;;;;;;;;16.49;100.00;99334.78;5032779;28;19913;-76
2023/05/12 12:28:36;;;;;;;;;;;;;;;16.57;100.00;99331.97;5033924;28;19928;-77
2023/05/12 12:31:02;;;;;;;;;;;;;;;16.57;100.00;99331.16;5030123;28;20310;-79